Coggeshall, United Kingdom
Current Conditions -  °F | °C
As of 11:20 AM on Tuesday 21 Oct 2014 (Local Time) from EGSS Reporting Station
Broken Clouds Broken Clouds  
Wind Chill: 54°   Ceiling: 3400
Heat Index: 54°   Visibility: 6mi
Dew Point: 43°   Wind: 18mph
Humidity: 67%   Direction: 290°WNW
Pressure: 29.59"   Gusts: NA
Location:  51.87°N, 0.69°E
Report Text: EGSS 211020Z 29016KT 9999 FEW028 BKN034 12/06 Q1002
Loading
Personal Weather Stations






























Interactive Weather Map New forecast layout! Learn more

10-Day Weather Forecast

Advertisements
Track Severe Weather on mobile